createdAt,value
2022-08-10T00:01:53.293Z,100868.28
2022-08-10T00:04:23.041Z,100875.38
2022-08-10T00:06:52.827Z,100872.66
2022-08-10T00:09:20.865Z,100879.06
2022-08-10T00:11:48.727Z,100876.91
2022-08-10T00:14:16.406Z,100867.81
2022-08-10T00:16:44.357Z,100865.28
2022-08-10T00:19:12.104Z,100866.59
2022-08-10T00:21:40.071Z,100859.38
2022-08-10T00:24:08.040Z,100859.84
2022-08-10T00:27:50.020Z,100863.41
2022-08-10T00:29:23.263Z,100865.25
2022-08-10T00:31:58.615Z,100863.84
2022-08-10T00:34:32.443Z,100860.53
2022-08-10T00:37:00.871Z,100863.22
2022-08-10T00:39:29.692Z,100867.41
2022-08-10T00:42:07.191Z,100867.72
2022-08-10T00:44:41.335Z,100875.94
2022-08-10T00:47:16.283Z,100877.66
2022-08-10T00:49:57.928Z,100883.97
2022-08-10T00:52:27.626Z,100881.53
2022-08-10T00:54:55.138Z,100882.00
2022-08-10T00:57:22.994Z,100885.19
2022-08-10T00:59:59.059Z,100877.84
2022-08-10T01:02:32.950Z,100883.38
2022-08-10T01:05:04.840Z,100886.06
2022-08-10T01:08:04.117Z,100885.91
2022-08-10T01:10:39.093Z,100886.81
2022-08-10T01:13:17.067Z,100886.47
2022-08-10T01:15:58.303Z,100885.16
2022-08-10T01:18:38.075Z,100897.09
2022-08-10T01:21:23.788Z,100886.50
2022-08-10T01:24:13.759Z,100894.34
2022-08-10T01:27:16.289Z,100888.31
2022-08-10T01:30:13.548Z,100892.44
2022-08-10T01:32:58.954Z,100893.75
2022-08-10T01:35:36.771Z,100894.81
2022-08-10T01:38:14.804Z,100889.72
2022-08-10T01:40:47.053Z,100897.25
2022-08-10T01:43:17.643Z,100899.25
2022-08-10T01:45:49.555Z,100891.78
2022-08-10T01:48:50.517Z,100900.47
2022-08-10T01:51:32.988Z,100905.13
2022-08-10T01:54:09.289Z,100906.00
2022-08-10T01:56:43.590Z,100901.63
2022-08-10T01:59:14.582Z,100908.56
2022-08-10T02:01:47.893Z,100905.16
2022-08-10T02:04:18.510Z,100906.47
2022-08-10T02:06:49.685Z,100906.34
2022-08-10T02:09:25.314Z,100904.34
2022-08-10T02:12:07.565Z,100902.81
2022-08-10T02:15:06.206Z,100917.94
2022-08-10T02:17:59.679Z,100915.25
2022-08-10T02:20:32.508Z,100918.50
2022-08-10T02:23:04.649Z,100916.97
2022-08-10T02:25:42.608Z,100914.44
2022-08-10T02:28:29.610Z,100912.88
2022-08-10T02:31:11.586Z,100910.63
2022-08-10T02:33:56.353Z,100911.06
2022-08-10T02:36:29.582Z,100911.31
2022-08-10T02:39:01.012Z,100915.16
2022-08-10T02:45:13.653Z,100907.53
2022-08-10T02:45:27.061Z,100910.63
2022-08-10T02:47:28.381Z,100909.78
2022-08-10T02:50:04.078Z,100912.63
2022-08-10T02:52:55.549Z,100915.44
2022-08-10T02:55:33.824Z,100920.81
2022-08-10T02:58:17.627Z,100927.06
2022-08-10T03:00:54.350Z,100929.75
2022-08-10T03:03:37.800Z,100930.84
2022-08-10T03:06:13.080Z,100929.47
2022-08-10T03:08:44.020Z,100931.56
2022-08-10T03:12:36.536Z,100930.69
2022-08-10T03:14:11.573Z,100926.31
2022-08-10T03:16:39.831Z,100921.38
2022-08-10T03:20:33.704Z,100931.56
2022-08-10T03:21:58.822Z,100923.06
2022-08-10T03:24:33.207Z,100926.91
2022-08-10T03:27:01.995Z,100930.53
2022-08-10T03:30:29.983Z,100938.88
2022-08-10T03:32:20.855Z,100932.22
2022-08-10T03:34:48.635Z,100936.31
2022-08-10T03:37:16.271Z,100941.25
2022-08-10T03:39:44.129Z,100934.34
2022-08-10T03:42:15.735Z,100932.34
2022-08-10T03:44:48.563Z,100948.75
2022-08-10T03:47:20.170Z,100942.78
2022-08-10T03:49:49.769Z,100941.25
2022-08-10T03:52:18.868Z,100942.53
2022-08-10T03:54:47.445Z,100941.13
2022-08-10T03:57:15.080Z,100935.31
2022-08-10T03:59:43.008Z,100931.53
2022-08-10T04:02:44.345Z,100943.38
2022-08-10T04:04:59.268Z,100936.16
2022-08-10T04:07:27.303Z,100932.50
2022-08-10T04:09:56.463Z,100930.41
2022-08-10T04:12:26.758Z,100929.84
2022-08-10T04:14:54.450Z,100926.78
2022-08-10T04:18:04.650Z,100935.81
2022-08-10T04:20:18.242Z,100931.44
2022-08-10T04:22:50.127Z,100923.63
2022-08-10T04:25:18.620Z,100924.50
2022-08-10T04:27:47.401Z,100920.94
2022-08-10T04:30:15.531Z,100917.00
2022-08-10T04:32:45.810Z,100917.16
2022-08-10T04:35:16.792Z,100919.13
2022-08-10T04:37:47.004Z,100918.41
2022-08-10T04:40:28.519Z,100924.19
2022-08-10T04:43:10.911Z,100908.66
2022-08-10T04:45:48.264Z,100911.50
2022-08-10T04:48:40.035Z,100914.03
2022-08-10T04:51:16.808Z,100917.97
2022-08-10T04:54:04.664Z,100916.00
2022-08-10T04:56:36.139Z,100916.28
2022-08-10T04:59:05.343Z,100919.09
2022-08-10T05:02:21.394Z,100919.94
2022-08-10T05:04:37.405Z,100918.78
2022-08-10T05:07:09.054Z,100915.84
2022-08-10T05:10:04.084Z,100916.25
2022-08-10T05:12:26.466Z,100919.09
2022-08-10T05:14:54.738Z,100921.31
2022-08-10T05:17:23.541Z,100910.25
2022-08-10T05:20:04.905Z,100910.09
2022-08-10T05:22:41.448Z,100907.16
2022-08-10T05:25:15.264Z,100911.06
2022-08-10T05:27:43.734Z,100907.66
2022-08-10T05:30:17.439Z,100904.53
2022-08-10T05:32:57.413Z,100897.47
2022-08-10T05:35:28.747Z,100894.09
2022-08-10T05:38:14.628Z,100894.88
2022-08-10T05:40:46.488Z,100892.88
2022-08-10T05:43:18.075Z,100893.84
2022-08-10T05:46:17.955Z,100897.50
2022-08-10T05:48:54.415Z,100881.03
2022-08-10T05:51:25.471Z,100880.31
2022-08-10T05:54:00.959Z,100883.31
2022-08-10T05:56:54.832Z,100882.00
2022-08-10T06:00:11.130Z,100887.47
2022-08-10T06:02:35.331Z,100885.19
2022-08-10T06:05:12.302Z,100888.63
2022-08-10T06:07:49.036Z,100883.38
2022-08-10T06:10:32.969Z,100875.69
2022-08-10T06:13:29.677Z,100874.44
2022-08-10T06:16:02.680Z,100871.66
2022-08-10T06:18:31.217Z,100877.50
2022-08-10T06:21:00.902Z,100875.09
2022-08-10T06:23:30.748Z,100870.81
2022-08-10T06:26:08.636Z,100857.91
2022-08-10T06:29:03.173Z,100849.75
2022-08-10T06:31:48.343Z,100845.09
2022-08-10T06:34:27.788Z,100840.78
2022-08-10T06:36:59.188Z,100843.22
2022-08-10T06:39:36.462Z,100836.91
2022-08-10T06:42:15.802Z,100833.94
2022-08-10T06:45:22.541Z,100835.03
2022-08-10T06:47:59.725Z,100827.34
2022-08-10T06:50:58.632Z,100822.28
2022-08-10T06:53:53.664Z,100815.06
2022-08-10T06:56:37.825Z,100817.94
2022-08-10T06:59:21.208Z,100807.88
2022-08-10T07:02:16.089Z,100804.47
2022-08-10T07:04:48.417Z,100800.25
2022-08-10T07:07:19.773Z,100804.28
2022-08-10T07:09:49.415Z,100816.94
2022-08-10T07:12:20.635Z,100801.00
2022-08-10T07:14:51.503Z,100797.81
2022-08-10T07:17:25.750Z,100803.03
2022-08-10T07:19:56.844Z,100803.03
2022-08-10T07:23:50.794Z,100803.66
2022-08-10T07:25:21.712Z,100796.34
2022-08-10T07:28:00.487Z,100799.53
2022-08-10T07:30:37.107Z,100795.44
2022-08-10T07:33:06.211Z,100787.59
2022-08-10T07:35:43.004Z,100796.81
2022-08-10T07:38:17.346Z,100795.56
2022-08-10T07:40:46.852Z,100775.56
2022-08-10T07:43:17.172Z,100768.72
2022-08-10T07:45:46.743Z,100776.47
2022-08-10T07:48:28.963Z,100780.44
2022-08-10T07:51:02.403Z,100770.31
2022-08-10T07:53:40.049Z,100756.22
2022-08-10T07:56:21.235Z,100768.66
2022-08-10T07:59:07.530Z,100775.72
2022-08-10T08:01:41.029Z,100766.97
2022-08-10T08:04:12.512Z,100767.09
2022-08-10T08:06:42.681Z,100763.09
2022-08-10T08:09:11.813Z,100754.63
2022-08-10T08:11:43.518Z,100756.81
2022-08-10T08:14:13.550Z,100754.16
2022-08-10T08:16:45.572Z,100750.03
2022-08-10T08:19:37.831Z,100747.91
2022-08-10T08:24:15.031Z,100750.28
2022-08-10T08:24:53.088Z,100739.00
2022-08-10T08:27:21.790Z,100739.19
2022-08-10T08:29:52.338Z,100732.19
2022-08-10T08:32:25.944Z,100730.25
2022-08-10T08:35:02.289Z,100721.38
2022-08-10T08:38:32.893Z,100723.22
2022-08-10T08:40:29.339Z,100723.63
2022-08-10T08:43:09.446Z,100718.53
2022-08-10T08:46:12.603Z,100717.53
2022-08-10T08:50:05.127Z,100709.53
2022-08-10T08:52:24.764Z,100702.88
2022-08-10T08:56:01.402Z,100693.56
2022-08-10T08:58:12.739Z,100700.59
2022-08-10T09:01:13.637Z,100702.03
2022-08-10T09:04:21.027Z,100705.38
2022-08-10T09:07:59.947Z,100709.41
2022-08-10T09:10:37.909Z,100705.75
2022-08-10T09:13:26.954Z,100700.13
2022-08-10T09:16:13.111Z,100694.16
2022-08-10T09:19:05.627Z,100702.31
2022-08-10T09:22:13.043Z,100691.56
2022-08-10T09:24:59.248Z,100691.66
2022-08-10T09:27:35.490Z,100686.72
2022-08-10T09:30:11.313Z,100684.78
2022-08-10T09:36:15.601Z,100694.16
2022-08-10T09:36:22.445Z,100691.72
2022-08-10T09:38:57.844Z,100697.25
2022-08-10T09:41:36.511Z,100690.28
2022-08-10T09:44:13.886Z,100688.47
2022-08-10T09:46:55.321Z,100692.31
2022-08-10T09:49:54.402Z,100683.56
2022-08-10T09:52:44.242Z,100680.28
2022-08-10T09:55:24.311Z,100685.97
2022-08-10T09:58:30.277Z,100684.50
2022-08-10T10:01:57.971Z,100682.59
2022-08-10T10:04:47.624Z,100683.66
2022-08-10T10:07:24.897Z,100678.81
2022-08-10T10:10:04.293Z,100682.41
2022-08-10T10:12:51.447Z,100677.41
2022-08-10T10:15:31.771Z,100680.75
2022-08-10T10:18:08.316Z,100679.88
2022-08-10T10:20:45.478Z,100671.50
2022-08-10T10:23:38.436Z,100676.94
2022-08-10T10:26:32.369Z,100666.88
2022-08-10T10:29:37.433Z,100670.63
2022-08-10T10:32:21.707Z,100672.13
2022-08-10T10:35:24.784Z,100666.69
2022-08-10T10:38:01.318Z,100670.25
2022-08-10T10:40:49.653Z,100671.72
2022-08-10T10:43:36.459Z,100669.41
2022-08-10T10:46:33.721Z,100670.25
2022-08-10T10:49:15.024Z,100679.25
2022-08-10T10:52:11.177Z,100676.72
2022-08-10T10:54:57.382Z,100666.63
2022-08-10T10:57:59.493Z,100673.78
2022-08-10T11:00:22.201Z,100672.91
2022-08-10T11:02:52.840Z,100666.19
2022-08-10T11:05:48.145Z,100664.53
2022-08-10T11:08:19.001Z,100665.09
2022-08-10T11:11:20.462Z,100665.94
2022-08-10T11:14:27.101Z,100661.50
2022-08-10T11:17:25.550Z,100666.63
2022-08-10T11:20:03.002Z,100662.72
2022-08-10T11:22:57.108Z,100653.66
2022-08-10T11:25:36.271Z,100657.31
2022-08-10T11:28:10.873Z,100652.81
2022-08-10T11:31:00.334Z,100644.94
2022-08-10T11:34:11.275Z,100647.94
2022-08-10T11:36:42.230Z,100640.41
2022-08-10T11:39:19.197Z,100644.84
2022-08-10T11:42:09.352Z,100628.47
2022-08-10T11:45:24.740Z,100622.75
2022-08-10T11:47:58.984Z,100634.44
2022-08-10T11:50:45.680Z,100635.03
2022-08-10T11:53:39.086Z,100629.16
2022-08-10T11:56:11.011Z,100620.72
2022-08-10T11:59:01.905Z,100622.63
2022-08-10T12:01:47.803Z,100628.09
2022-08-10T12:04:17.247Z,100620.22
2022-08-10T12:07:02.122Z,100608.63
2022-08-10T12:10:10.644Z,100614.06
2022-08-10T12:12:20.337Z,100606.75
2022-08-10T12:14:57.217Z,100613.41
2022-08-10T12:17:24.950Z,100604.91
2022-08-10T12:20:04.927Z,100608.00
2022-08-10T12:23:00.092Z,100604.81
2022-08-10T12:25:55.970Z,100608.56
2022-08-10T12:28:50.671Z,100605.81
2022-08-10T12:31:27.660Z,100600.13
2022-08-10T12:34:23.156Z,100598.66
2022-08-10T12:37:22.987Z,100599.78
2022-08-10T12:44:03.807Z,100602.47
2022-08-10T12:46:15.923Z,100587.56
2022-08-10T12:49:17.382Z,100594.22
2022-08-10T12:51:59.368Z,100592.31
2022-08-10T12:54:34.149Z,100595.94
2022-08-10T12:57:12.768Z,100585.94
2022-08-10T12:59:44.190Z,100588.81
2022-08-10T13:02:21.670Z,100588.94
2022-08-10T13:04:52.149Z,100584.13
2022-08-10T13:08:25.809Z,100581.69
2022-08-10T13:10:18.568Z,100585.47
2022-08-10T13:12:50.966Z,100579.16
2022-08-10T13:15:45.982Z,100572.47
2022-08-10T13:18:19.630Z,100582.06
2022-08-10T13:21:00.661Z,100585.19
2022-08-10T13:23:30.200Z,100579.69
2022-08-10T13:26:00.975Z,100569.53
2022-08-10T13:28:43.165Z,100564.94
2022-08-10T13:32:03.421Z,100570.41
2022-08-10T13:34:42.866Z,100567.28
2022-08-10T13:37:10.614Z,100566.69
2022-08-10T13:39:58.215Z,100575.53
2022-08-10T13:42:39.921Z,100569.72
2022-08-10T13:45:14.670Z,100565.09
2022-08-10T13:47:49.084Z,100571.47
2022-08-10T13:50:35.539Z,100575.47
2022-08-10T13:53:15.130Z,100572.25
2022-08-10T13:55:56.498Z,100569.31
2022-08-10T13:58:37.200Z,100566.94
2022-08-10T14:01:13.978Z,100561.44
2022-08-10T14:03:44.426Z,100565.44
2022-08-10T14:06:16.321Z,100560.59
2022-08-10T14:08:51.822Z,100563.84
2022-08-10T14:11:21.393Z,100556.72
2022-08-10T14:14:03.221Z,100557.97
2022-08-10T14:16:33.435Z,100559.84
2022-08-10T14:19:13.071Z,100550.38
2022-08-10T14:21:42.179Z,100559.19
2022-08-10T14:24:24.667Z,100548.91
2022-08-10T14:27:02.494Z,100546.25
2022-08-10T14:29:33.332Z,100547.91
2022-08-10T14:32:06.588Z,100544.78
2022-08-10T14:36:15.280Z,100546.84
2022-08-10T14:37:39.885Z,100550.91
2022-08-10T14:40:14.977Z,100551.00
2022-08-10T14:43:06.641Z,100551.09
2022-08-10T14:45:39.531Z,100546.50
2022-08-10T14:48:33.038Z,100551.13
2022-08-10T14:51:03.262Z,100558.06
2022-08-10T14:53:35.932Z,100552.84
2022-08-10T14:56:09.016Z,100551.19
2022-08-10T14:59:05.943Z,100561.47
2022-08-10T15:02:00.286Z,100548.06
2022-08-10T15:04:23.043Z,100555.38
2022-08-10T15:06:59.849Z,100557.69
2022-08-10T15:09:33.030Z,100551.63
2022-08-10T15:12:27.138Z,100552.88
2022-08-10T15:15:00.782Z,100545.97
2022-08-10T15:17:35.083Z,100545.53
2022-08-10T15:20:20.785Z,100547.38
2022-08-10T15:23:30.859Z,100554.31
2022-08-10T15:26:10.808Z,100539.44
2022-08-10T15:29:24.262Z,100545.28
2022-08-10T15:31:56.387Z,100561.44
2022-08-10T15:34:43.446Z,100557.38
2022-08-10T15:37:39.911Z,100556.13
2022-08-10T15:40:22.509Z,100563.09
2022-08-10T15:43:01.916Z,100558.28
2022-08-10T15:45:34.813Z,100555.78
2022-08-10T15:48:05.343Z,100557.25
2022-08-10T15:50:40.248Z,100562.31
2022-08-10T15:53:18.681Z,100556.25
2022-08-10T15:55:52.779Z,100555.78
2022-08-10T15:58:52.344Z,100555.16
2022-08-10T16:02:15.005Z,100552.88
2022-08-10T16:04:35.570Z,100562.25
2022-08-10T16:07:22.034Z,100559.13
2022-08-10T16:10:23.381Z,100560.56
2022-08-10T16:13:00.882Z,100562.00
2022-08-10T16:15:31.715Z,100553.19
2022-08-10T16:18:16.664Z,100562.63
2022-08-10T16:20:55.556Z,100556.09
2022-08-10T16:23:24.829Z,100558.59
2022-08-10T16:26:02.993Z,100561.94
2022-08-10T16:28:43.171Z,100556.06
2022-08-10T16:31:22.935Z,100558.16
2022-08-10T16:33:54.903Z,100560.84
2022-08-10T16:36:49.446Z,100561.06
2022-08-10T16:39:59.660Z,100572.78
2022-08-10T16:42:24.285Z,100568.81
2022-08-10T16:45:07.205Z,100581.31
2022-08-10T16:47:39.120Z,100575.25
2022-08-10T16:50:11.789Z,100574.81
2022-08-10T16:52:42.088Z,100576.50
2022-08-10T16:55:24.050Z,100576.47
2022-08-10T16:58:03.363Z,100579.19
2022-08-10T17:00:32.070Z,100575.78
2022-08-10T17:03:22.479Z,100578.88
2022-08-10T17:06:09.925Z,100579.69
2022-08-10T17:08:52.043Z,100573.41
2022-08-10T17:11:22.817Z,100579.88
2022-08-10T17:13:56.491Z,100583.38
2022-08-10T17:16:26.252Z,100575.81
2022-08-10T17:18:56.917Z,100590.91
2022-08-10T17:21:35.312Z,100589.19
2022-08-10T17:24:05.482Z,100581.00
2022-08-10T17:26:38.408Z,100584.09
2022-08-10T17:29:58.298Z,100594.72
2022-08-10T17:32:14.907Z,100597.84
2022-08-10T17:34:46.579Z,100598.41
2022-08-10T17:37:20.554Z,100599.78
2022-08-10T17:39:52.778Z,100603.72
2022-08-10T17:42:22.585Z,100608.09
2022-08-10T17:44:54.261Z,100605.09
2022-08-10T17:47:27.210Z,100603.81
2022-08-10T17:49:57.680Z,100607.28
2022-08-10T17:52:29.179Z,100599.75
2022-08-10T17:55:01.679Z,100608.22
2022-08-10T17:57:36.706Z,100607.38
2022-08-10T18:00:10.286Z,100607.78
2022-08-10T18:02:43.045Z,100615.72
2022-08-10T18:05:12.985Z,100613.13
2022-08-10T18:07:51.210Z,100610.34
2022-08-10T18:10:21.808Z,100605.13
2022-08-10T18:12:55.537Z,100608.59
2022-08-10T18:15:27.756Z,100605.19
2022-08-10T18:18:00.343Z,100603.25
2022-08-10T18:20:35.256Z,100599.88
2022-08-10T18:23:03.849Z,100598.97
2022-08-10T18:25:35.483Z,100602.09
2022-08-10T18:28:07.908Z,100603.50
2022-08-10T18:30:46.532Z,100609.75
2022-08-10T18:33:16.253Z,100603.97
2022-08-10T18:35:49.710Z,100602.44
2022-08-10T18:38:19.254Z,100602.66
2022-08-10T18:40:59.665Z,100595.47
2022-08-10T18:44:06.299Z,100602.50
2022-08-10T18:46:29.844Z,100599.13
2022-08-10T18:49:05.310Z,100608.03
2022-08-10T18:51:47.234Z,100599.06
2022-08-10T18:54:38.969Z,100602.63
2022-08-10T18:57:42.709Z,100605.34
2022-08-10T19:00:15.550Z,100610.09
2022-08-10T19:02:57.075Z,100605.41
2022-08-10T19:05:37.289Z,100604.75
2022-08-10T19:08:49.550Z,100604.47
2022-08-10T19:11:39.475Z,100604.56
2022-08-10T19:14:15.597Z,100609.53
2022-08-10T19:17:05.554Z,100614.44
2022-08-10T19:19:51.187Z,100613.34
2022-08-10T19:22:29.014Z,100608.59
2022-08-10T19:25:05.827Z,100604.00
2022-08-10T19:28:10.759Z,100599.88
2022-08-10T19:31:01.061Z,100599.59
2022-08-10T19:33:50.526Z,100595.38
2022-08-10T19:36:25.166Z,100597.53
2022-08-10T19:39:20.820Z,100598.84
2022-08-10T19:42:17.249Z,100596.50
2022-08-10T19:44:53.820Z,100596.31
2022-08-10T19:48:05.872Z,100596.69
2022-08-10T19:50:40.369Z,100601.44
2022-08-10T19:53:25.223Z,100599.94
2022-08-10T19:56:32.700Z,100598.97
2022-08-10T20:00:17.011Z,100603.34
2022-08-10T20:02:21.121Z,100605.94
2022-08-10T20:05:00.455Z,100596.81
2022-08-10T20:07:55.979Z,100595.66
2022-08-10T20:10:43.388Z,100587.63
2022-08-10T20:13:36.180Z,100587.63
2022-08-10T20:16:11.735Z,100592.00
2022-08-10T20:18:48.082Z,100588.00
2022-08-10T20:21:23.813Z,100582.28
2022-08-10T20:23:58.332Z,100581.63
2022-08-10T20:26:33.286Z,100580.94
2022-08-10T20:29:09.975Z,100589.38
2022-08-10T20:31:46.226Z,100583.00
2022-08-10T20:34:20.047Z,100579.97
2022-08-10T20:36:55.062Z,100583.72
2022-08-10T20:39:46.616Z,100586.69
2022-08-10T20:42:35.048Z,100590.88
2022-08-10T20:45:05.979Z,100574.84
2022-08-10T20:47:54.090Z,100587.22
2022-08-10T20:50:46.064Z,100579.41
2022-08-10T20:53:21.657Z,100582.13
2022-08-10T20:56:08.793Z,100572.78
2022-08-10T20:59:09.088Z,100570.28
2022-08-10T21:02:07.091Z,100569.13
2022-08-10T21:04:51.427Z,100563.06
2022-08-10T21:08:01.055Z,100565.84
2022-08-10T21:11:00.910Z,100565.19
2022-08-10T21:13:53.528Z,100559.59
2022-08-10T21:16:39.299Z,100558.22
2022-08-10T21:19:16.243Z,100552.03
2022-08-10T21:22:03.045Z,100537.69
2022-08-10T21:24:38.979Z,100542.13
2022-08-10T21:27:22.461Z,100540.31
2022-08-10T21:30:29.480Z,100538.13
2022-08-10T21:33:02.622Z,100540.66
2022-08-10T21:35:40.620Z,100537.31
2022-08-10T21:38:28.408Z,100533.56
2022-08-10T21:41:57.955Z,100523.47
2022-08-10T21:45:22.459Z,100521.13
2022-08-10T21:48:57.725Z,100517.09
2022-08-10T21:52:00.574Z,100514.41
2022-08-10T21:54:51.684Z,100519.97
2022-08-10T21:57:45.697Z,100513.75
2022-08-10T22:00:34.695Z,100510.84
2022-08-10T22:03:23.968Z,100515.28
2022-08-10T22:06:15.243Z,100516.97
2022-08-10T22:09:11.329Z,100522.75
2022-08-10T22:12:03.453Z,100528.97
2022-08-10T22:14:58.683Z,100508.06
2022-08-10T22:18:06.747Z,100510.41
2022-08-10T22:20:55.623Z,100519.06
2022-08-10T22:23:48.288Z,100514.03
2022-08-10T22:26:56.525Z,100515.88
2022-08-10T22:29:56.476Z,100510.84
2022-08-10T22:33:06.811Z,100517.66
2022-08-10T22:36:18.118Z,100507.69
2022-08-10T22:40:10.743Z,100504.66
2022-08-10T22:42:59.619Z,100501.13
2022-08-10T22:45:54.942Z,100500.28
2022-08-10T22:48:41.052Z,100495.06
2022-08-10T22:51:15.510Z,100502.66
2022-08-10T22:54:08.415Z,100504.50
2022-08-10T22:56:57.504Z,100498.94
2022-08-10T22:59:32.977Z,100505.53
2022-08-10T23:02:15.062Z,100506.09
2022-08-10T23:04:52.982Z,100501.69
2022-08-10T23:07:25.647Z,100508.59
2022-08-10T23:10:24.588Z,100498.81
2022-08-10T23:13:02.588Z,100498.03
2022-08-10T23:15:54.041Z,100505.47
2022-08-10T23:18:51.169Z,100498.22
2022-08-10T23:21:20.862Z,100498.72
2022-08-10T23:23:54.297Z,100494.19
2022-08-10T23:26:26.980Z,100493.66
2022-08-10T23:28:59.225Z,100493.00
2022-08-10T23:32:06.267Z,100499.41
2022-08-10T23:34:32.928Z,100505.47
2022-08-10T23:37:04.023Z,100499.59
2022-08-10T23:39:42.185Z,100500.41
2022-08-10T23:42:15.037Z,100503.47
2022-08-10T23:44:49.607Z,100507.84
2022-08-10T23:47:21.485Z,100501.78
2022-08-10T23:49:51.582Z,100502.13
2022-08-10T23:52:25.723Z,100506.69
2022-08-10T23:54:55.826Z,100502.97
2022-08-10T23:57:26.571Z,100507.53
